Rechercher aéroport 
image banner adimage banner adimage banner ad
image banner ad

79CL - Milhous Ranch

Situé à North San Juan, United States

ICAO - 79CL, IATA -

Données fournies par Airmate  

Information générale

Coordonnées: N39°19'30" W121°4'34"
Élévation : 2625 feet MSL.
Variation magnétique : 16° East
Voir autres Aéroports à California

Données opérationnelles

Special qualification required
Heure actuelle UTC:
Heure actuelle locale:
Météo à : KGOO - Nevada County Air Park ( 13 km )
METAR: KGOO 251255Z AUTO 00000KT 10SM OVC048 25/03 A3003 RMK A01
Voir NOTAMs / SUP AIP / TFR affectant cet aéroport [VIEW]
Fréquences de communication: [VIEW]

Pistes:

Identifiant RWYQFULongueur (ft)Largeur (ft)SurfaceLDA (ft)
03210075EARTH
21210075EARTH

Coordonnées de l'aéroport

Adresse: North San Juan United States

Vue satellite de 79CL